createdAt,value
2022-08-17T00:00:34.404Z,11.18
2022-08-17T00:03:08.261Z,11.40
2022-08-17T00:05:41.516Z,10.80
2022-08-17T00:08:10.093Z,11.45
2022-08-17T00:10:38.373Z,11.07
2022-08-17T00:13:07.820Z,11.55
2022-08-17T00:15:36.114Z,11.60
2022-08-17T00:19:07.858Z,11.80
2022-08-17T00:20:54.830Z,12.18
2022-08-17T00:23:23.074Z,11.63
2022-08-17T00:25:51.474Z,11.25
2022-08-17T00:28:20.181Z,12.50
2022-08-17T00:30:53.027Z,11.63
2022-08-17T00:33:24.108Z,11.90
2022-08-17T00:35:52.398Z,11.93
2022-08-17T00:38:21.977Z,12.27
2022-08-17T00:40:51.690Z,11.82
2022-08-17T00:43:21.606Z,12.93
2022-08-17T00:45:50.763Z,12.45
2022-08-17T00:48:29.178Z,12.32
2022-08-17T00:51:00.407Z,12.85
2022-08-17T00:53:31.746Z,12.18
2022-08-17T00:56:01.767Z,12.82
2022-08-17T00:58:36.314Z,12.70
2022-08-17T01:01:05.793Z,12.68
2022-08-17T01:03:34.869Z,13.20
2022-08-17T01:06:04.509Z,13.05
2022-08-17T01:08:34.686Z,13.65
2022-08-17T01:11:05.446Z,12.52
2022-08-17T01:13:40.770Z,13.70
2022-08-17T01:16:13.275Z,12.93
2022-08-17T01:18:42.139Z,13.48
2022-08-17T01:21:12.601Z,14.15
2022-08-17T01:23:42.991Z,13.55
2022-08-17T01:26:11.254Z,13.13
2022-08-17T01:28:53.722Z,13.40
2022-08-17T01:31:26.745Z,15.23
2022-08-17T01:33:54.999Z,14.38
2022-08-17T01:36:23.694Z,13.85
2022-08-17T01:38:53.326Z,13.93
2022-08-17T01:41:23.451Z,13.70
2022-08-17T01:43:53.713Z,13.40
2022-08-17T01:46:23.629Z,13.93
2022-08-17T01:48:51.862Z,15.23
2022-08-17T01:51:20.990Z,14.73
2022-08-17T01:53:50.290Z,16.52
2022-08-17T01:56:21.188Z,16.00
2022-08-17T01:58:49.505Z,15.52
2022-08-17T02:01:18.705Z,16.08
2022-08-17T02:03:59.456Z,15.55
2022-08-17T02:06:30.361Z,16.75
2022-08-17T02:09:02.992Z,16.63
2022-08-17T02:11:34.413Z,14.75
2022-08-17T02:14:04.038Z,16.13
2022-08-17T02:16:37.082Z,16.67
2022-08-17T02:19:06.502Z,17.13
2022-08-17T02:21:34.777Z,16.83
2022-08-17T02:24:03.103Z,16.50
2022-08-17T02:26:32.801Z,18.17
2022-08-17T02:29:01.060Z,17.73
2022-08-17T02:31:31.035Z,17.13
2022-08-17T02:34:04.476Z,18.42
2022-08-17T02:36:33.730Z,19.60
2022-08-17T02:39:02.211Z,18.27
2022-08-17T02:41:30.489Z,19.63
2022-08-17T02:44:00.169Z,18.10
2022-08-17T02:46:28.548Z,18.13
2022-08-17T02:48:56.794Z,18.63
2022-08-17T02:51:25.039Z,18.83
2022-08-17T02:53:53.362Z,19.77
2022-08-17T02:56:41.585Z,17.60
2022-08-17T02:59:11.209Z,18.05
2022-08-17T03:01:39.533Z,18.08
2022-08-17T03:04:07.779Z,19.20
2022-08-17T03:06:36.081Z,18.90
2022-08-17T03:09:04.345Z,18.40
2022-08-17T03:11:32.699Z,18.85
2022-08-17T03:14:00.953Z,19.30
2022-08-17T03:16:30.572Z,20.10
2022-08-17T03:18:58.855Z,21.30
2022-08-17T03:21:27.258Z,20.25
2022-08-17T03:23:55.510Z,19.77
2022-08-17T03:26:23.705Z,20.65
2022-08-17T03:28:57.937Z,21.33
2022-08-17T03:31:26.242Z,19.95
2022-08-17T03:33:56.327Z,20.50
2022-08-17T03:36:24.753Z,20.25
2022-08-17T03:38:53.001Z,20.55
2022-08-17T03:41:23.157Z,20.42
2022-08-17T03:43:51.399Z,20.55
2022-08-17T03:46:37.292Z,18.88
2022-08-17T03:49:25.507Z,20.80
2022-08-17T03:52:11.473Z,21.10
2022-08-17T03:54:57.489Z,21.45
2022-08-17T03:57:25.902Z,21.60
2022-08-17T03:59:54.468Z,21.92
2022-08-17T04:02:25.083Z,21.45
2022-08-17T04:04:54.760Z,21.80
2022-08-17T04:07:24.620Z,22.08
2022-08-17T04:09:52.867Z,20.58
2022-08-17T04:12:22.288Z,21.33
2022-08-17T04:14:51.699Z,22.67
2022-08-17T04:17:22.235Z,23.15
2022-08-17T04:19:50.524Z,22.45
2022-08-17T04:22:31.766Z,22.42
2022-08-17T04:25:01.945Z,22.70
2022-08-17T04:27:30.177Z,21.52
2022-08-17T04:29:58.476Z,21.20
2022-08-17T04:33:03.419Z,22.02
2022-08-17T04:35:18.746Z,22.13
2022-08-17T04:37:48.445Z,23.83
2022-08-17T04:40:34.665Z,22.38
2022-08-17T04:43:03.845Z,22.13
2022-08-17T04:45:32.612Z,23.00
2022-08-17T04:48:01.172Z,22.10
2022-08-17T04:50:29.463Z,23.17
2022-08-17T04:52:59.462Z,21.55
2022-08-17T04:55:28.002Z,21.98
2022-08-17T04:57:56.598Z,22.50
2022-08-17T05:00:25.901Z,22.08
2022-08-17T05:02:55.610Z,21.67
2022-08-17T05:05:26.179Z,21.10
2022-08-17T05:07:54.769Z,21.50
2022-08-17T05:10:24.462Z,22.20
2022-08-17T05:12:59.575Z,20.75
2022-08-17T05:15:28.284Z,19.63
2022-08-17T05:18:01.201Z,19.58
2022-08-17T05:20:29.931Z,20.40
2022-08-17T05:23:00.776Z,19.65
2022-08-17T05:25:34.436Z,20.05
2022-08-17T05:28:07.905Z,20.90
2022-08-17T05:30:37.975Z,20.00
2022-08-17T05:33:07.079Z,21.08
2022-08-17T05:35:36.498Z,22.38
2022-08-17T05:38:04.907Z,21.08
2022-08-17T05:40:34.605Z,20.90
2022-08-17T05:43:07.104Z,21.23
2022-08-17T05:45:55.828Z,21.58
2022-08-17T05:48:39.765Z,21.83
2022-08-17T05:51:38.861Z,21.27
2022-08-17T05:54:11.534Z,19.00
2022-08-17T05:56:52.107Z,18.98
2022-08-17T05:59:24.217Z,18.50
2022-08-17T06:01:56.107Z,16.35
2022-08-17T06:04:29.651Z,17.30
2022-08-17T06:07:00.526Z,17.35
2022-08-17T06:09:36.864Z,16.42
2022-08-17T06:12:20.271Z,16.48
2022-08-17T06:14:59.396Z,16.17
2022-08-17T06:17:28.837Z,17.65
2022-08-17T06:19:59.734Z,17.83
2022-08-17T06:22:31.425Z,16.10
2022-08-17T06:25:02.390Z,16.52
2022-08-17T06:27:35.910Z,16.45
2022-08-17T06:30:09.144Z,16.38
2022-08-17T06:32:39.125Z,15.05
2022-08-17T06:35:08.436Z,15.23
2022-08-17T06:37:44.778Z,14.95
2022-08-17T06:40:20.859Z,14.98
2022-08-17T06:43:05.643Z,14.68
2022-08-17T06:45:37.710Z,15.18
2022-08-17T06:48:09.054Z,15.43
2022-08-17T06:50:38.702Z,13.85
2022-08-17T06:53:13.102Z,14.77
2022-08-17T06:55:45.273Z,14.75
2022-08-17T06:58:16.789Z,14.23
2022-08-17T07:00:47.179Z,15.20
2022-08-17T07:03:18.445Z,15.23
2022-08-17T07:05:56.736Z,15.13
2022-08-17T07:08:35.121Z,15.90
2022-08-17T07:11:07.075Z,15.05
2022-08-17T07:13:39.983Z,13.10
2022-08-17T07:16:14.683Z,13.55
2022-08-17T07:18:43.831Z,13.52
2022-08-17T07:21:20.707Z,13.32
2022-08-17T07:24:00.637Z,11.60
2022-08-17T07:26:29.601Z,12.35
2022-08-17T07:29:01.746Z,11.23
2022-08-17T07:31:31.543Z,11.20
2022-08-17T07:34:01.362Z,11.63
2022-08-17T07:36:33.731Z,11.07
2022-08-17T07:39:03.187Z,10.48
2022-08-17T07:41:53.042Z,10.10
2022-08-17T07:44:25.150Z,9.38
2022-08-17T07:47:11.359Z,9.60
2022-08-17T07:49:40.607Z,9.75
2022-08-17T07:52:48.494Z,9.27
2022-08-17T07:55:02.223Z,8.30
2022-08-17T07:57:35.624Z,8.20
2022-08-17T08:00:19.450Z,8.20
2022-08-17T08:03:13.427Z,8.07
2022-08-17T08:05:50.937Z,8.32
2022-08-17T08:08:26.285Z,8.20
2022-08-17T08:11:00.101Z,8.43
2022-08-17T08:13:30.249Z,8.27
2022-08-17T08:16:16.037Z,8.45
2022-08-17T08:18:54.269Z,8.55
2022-08-17T08:21:29.969Z,8.43
2022-08-17T08:24:01.379Z,8.15
2022-08-17T08:26:32.940Z,7.55
2022-08-17T08:29:04.959Z,7.53
2022-08-17T08:31:42.336Z,7.75
2022-08-17T08:34:53.184Z,7.25
2022-08-17T08:37:17.653Z,7.32
2022-08-17T08:39:55.300Z,6.82
2022-08-17T08:42:26.412Z,6.93
2022-08-17T08:44:59.926Z,6.78
2022-08-17T08:47:45.663Z,7.03
2022-08-17T08:50:30.184Z,6.03
2022-08-17T08:53:11.969Z,5.50
2022-08-17T08:55:47.130Z,5.60
2022-08-17T08:58:31.908Z,5.90
2022-08-17T09:01:17.641Z,5.40
2022-08-17T09:04:19.522Z,6.18
2022-08-17T09:06:52.012Z,5.82
2022-08-17T09:09:25.894Z,6.18
2022-08-17T09:12:02.543Z,5.40
2022-08-17T09:14:44.922Z,5.47
2022-08-17T09:17:16.512Z,5.45
2022-08-17T09:19:50.303Z,5.30
2022-08-17T09:22:24.530Z,5.70
2022-08-17T09:24:58.366Z,5.60
2022-08-17T09:27:29.206Z,5.65
2022-08-17T09:29:58.979Z,5.40
2022-08-17T09:32:35.858Z,4.90
2022-08-17T09:35:07.538Z,4.65
2022-08-17T09:37:45.482Z,4.85
2022-08-17T09:40:15.583Z,5.13
2022-08-17T09:42:47.112Z,4.40
2022-08-17T09:45:25.556Z,4.80
2022-08-17T09:47:55.741Z,4.28
2022-08-17T09:51:04.006Z,4.53
2022-08-17T09:53:17.161Z,4.13
2022-08-17T09:55:53.728Z,4.38
2022-08-17T09:58:29.060Z,4.60
2022-08-17T10:00:59.548Z,4.78
2022-08-17T10:03:36.834Z,4.45
2022-08-17T10:06:13.212Z,4.40
2022-08-17T10:08:44.970Z,4.30
2022-08-17T10:11:22.320Z,5.00
2022-08-17T10:14:12.513Z,4.32
2022-08-17T10:16:57.928Z,4.32
2022-08-17T10:19:31.841Z,4.35
2022-08-17T10:22:34.710Z,3.83
2022-08-17T10:25:26.120Z,4.38
2022-08-17T10:28:03.154Z,4.13
2022-08-17T10:30:34.108Z,3.72
2022-08-17T10:33:03.569Z,3.88
2022-08-17T10:35:42.551Z,3.88
2022-08-17T10:38:29.259Z,4.57
2022-08-17T10:40:59.437Z,4.18
2022-08-17T10:43:34.125Z,4.30
2022-08-17T10:46:10.581Z,4.07
2022-08-17T10:49:23.916Z,5.20
2022-08-17T10:51:54.334Z,4.35
2022-08-17T10:54:37.529Z,4.55
2022-08-17T10:57:24.844Z,4.10
2022-08-17T10:59:53.674Z,4.68
2022-08-17T11:02:26.193Z,4.90
2022-08-17T11:04:59.934Z,4.40
2022-08-17T11:07:35.293Z,4.35
2022-08-17T11:10:15.293Z,5.10
2022-08-17T11:12:51.295Z,4.50
2022-08-17T11:15:25.642Z,4.28
2022-08-17T11:18:05.503Z,4.70
2022-08-17T11:20:41.628Z,4.85
2022-08-17T11:23:18.521Z,4.82
2022-08-17T11:25:50.111Z,4.55
2022-08-17T11:28:21.959Z,4.20
2022-08-17T11:30:52.394Z,4.53
2022-08-17T11:33:39.420Z,4.10
2022-08-17T11:36:14.155Z,5.28
2022-08-17T11:38:46.148Z,4.15
2022-08-17T11:41:20.122Z,4.10
2022-08-17T11:44:12.848Z,4.50
2022-08-17T11:47:08.826Z,4.43
2022-08-17T11:50:03.146Z,4.20
2022-08-17T11:52:39.414Z,4.70
2022-08-17T11:55:33.986Z,4.20
2022-08-17T11:58:01.619Z,4.45
2022-08-17T12:00:51.406Z,4.20
2022-08-17T12:03:27.680Z,4.07
2022-08-17T12:06:04.409Z,4.18
2022-08-17T12:08:34.307Z,4.00
2022-08-17T12:11:05.722Z,4.40
2022-08-17T12:13:39.866Z,4.25
2022-08-17T12:16:10.292Z,4.05
2022-08-17T12:18:41.921Z,4.50
2022-08-17T12:21:23.767Z,4.25
2022-08-17T12:23:56.657Z,4.90
2022-08-17T12:26:27.204Z,4.60
2022-08-17T12:28:58.211Z,4.50
2022-08-17T12:31:30.913Z,4.40
2022-08-17T12:34:00.432Z,4.40
2022-08-17T12:36:29.638Z,4.18
2022-08-17T12:39:14.011Z,4.20
2022-08-17T12:41:44.022Z,4.55
2022-08-17T12:44:15.427Z,4.47
2022-08-17T12:46:50.038Z,4.55
2022-08-17T12:49:26.421Z,4.65
2022-08-17T12:51:58.125Z,4.78
2022-08-17T12:54:30.418Z,4.57
2022-08-17T12:57:02.127Z,4.80
2022-08-17T12:59:33.032Z,4.85
2022-08-17T13:02:11.509Z,5.03
2022-08-17T13:04:41.751Z,4.55
2022-08-17T13:07:10.100Z,4.28
2022-08-17T13:09:40.370Z,4.40
2022-08-17T13:12:09.585Z,4.60
2022-08-17T13:14:37.967Z,4.65
2022-08-17T13:17:13.145Z,4.75
2022-08-17T13:19:48.657Z,4.97
2022-08-17T13:22:18.270Z,4.25
2022-08-17T13:24:54.415Z,4.93
2022-08-17T13:27:24.160Z,4.20
2022-08-17T13:29:53.903Z,4.15
2022-08-17T13:32:24.500Z,4.35
2022-08-17T13:35:12.648Z,4.03
2022-08-17T13:37:57.363Z,3.90
2022-08-17T13:40:33.985Z,4.28
2022-08-17T13:43:05.431Z,3.80
2022-08-17T13:45:39.345Z,3.78
2022-08-17T13:48:14.488Z,3.63
2022-08-17T13:50:45.026Z,3.55
2022-08-17T13:53:21.869Z,3.72
2022-08-17T13:55:51.878Z,3.38
2022-08-17T13:58:24.967Z,3.53
2022-08-17T14:00:53.514Z,3.35
2022-08-17T14:03:23.173Z,2.97
2022-08-17T14:05:52.405Z,3.45
2022-08-17T14:08:21.814Z,3.20
2022-08-17T14:10:52.772Z,3.25
2022-08-17T14:13:21.222Z,2.78
2022-08-17T14:15:55.636Z,3.40
2022-08-17T14:18:55.573Z,3.20
2022-08-17T14:21:14.870Z,2.95
2022-08-17T14:23:49.067Z,3.15
2022-08-17T14:26:23.281Z,2.85
2022-08-17T14:28:56.750Z,2.90
2022-08-17T14:31:27.550Z,2.80
2022-08-17T14:33:58.890Z,3.30
2022-08-17T14:36:27.430Z,2.75
2022-08-17T14:38:56.386Z,2.85
2022-08-17T14:41:24.725Z,2.85
2022-08-17T14:43:53.905Z,2.72
2022-08-17T14:46:22.567Z,2.70
2022-08-17T14:48:57.102Z,2.90
2022-08-17T14:51:27.552Z,2.92
2022-08-17T14:53:57.163Z,2.55
2022-08-17T14:56:25.573Z,2.63
2022-08-17T14:58:54.122Z,2.72
2022-08-17T15:01:24.368Z,2.50
2022-08-17T15:03:53.966Z,2.90
2022-08-17T15:06:23.581Z,2.85
2022-08-17T15:08:53.553Z,2.65
2022-08-17T15:11:21.869Z,2.90
2022-08-17T15:13:52.307Z,2.60
2022-08-17T15:16:21.478Z,2.80
2022-08-17T15:18:50.211Z,2.70
2022-08-17T15:21:18.691Z,3.03
2022-08-17T15:23:47.727Z,2.90
2022-08-17T15:26:17.521Z,3.35
2022-08-17T15:28:48.959Z,6.47
2022-08-17T15:31:31.693Z,10.30
2022-08-17T15:34:01.197Z,12.65
2022-08-17T15:36:29.585Z,15.07
2022-08-17T15:38:58.710Z,14.98
2022-08-17T15:41:28.356Z,16.65
2022-08-17T15:43:57.045Z,19.08
2022-08-17T15:46:26.594Z,16.85
2022-08-17T15:48:58.129Z,19.23
2022-08-17T15:51:27.727Z,20.02
2022-08-17T15:53:56.948Z,21.52
2022-08-17T15:56:26.467Z,21.52
2022-08-17T15:58:56.484Z,21.63
2022-08-17T16:03:01.187Z,21.75
2022-08-17T16:04:30.666Z,23.35
2022-08-17T16:06:59.585Z,24.60
2022-08-17T16:09:27.914Z,24.73
2022-08-17T16:11:56.648Z,24.83
2022-08-17T16:14:30.237Z,23.58
2022-08-17T16:17:03.506Z,24.73
2022-08-17T16:19:32.482Z,24.25
2022-08-17T16:22:00.822Z,23.60
2022-08-17T16:24:29.593Z,24.42
2022-08-17T16:26:58.011Z,23.75
2022-08-17T16:29:27.721Z,23.38
2022-08-17T16:31:56.002Z,22.67
2022-08-17T16:34:24.622Z,24.65
2022-08-17T16:36:56.165Z,24.17
2022-08-17T16:39:25.087Z,22.38
2022-08-17T16:41:53.333Z,24.38
2022-08-17T16:44:22.285Z,24.52
2022-08-17T16:46:51.911Z,24.77
2022-08-17T16:49:35.574Z,24.25
2022-08-17T16:52:06.614Z,22.85
2022-08-17T16:54:35.496Z,22.50
2022-08-17T16:57:05.113Z,23.63
2022-08-17T16:59:40.914Z,25.52
2022-08-17T17:02:14.570Z,24.33
2022-08-17T17:04:46.767Z,24.05
2022-08-17T17:07:21.615Z,25.38
2022-08-17T17:09:52.519Z,23.83
2022-08-17T17:13:02.971Z,24.30
2022-08-17T17:15:09.820Z,24.23
2022-08-17T17:17:40.603Z,24.00
2022-08-17T17:20:11.720Z,24.08
2022-08-17T17:22:43.978Z,25.77
2022-08-17T17:25:16.268Z,24.55
2022-08-17T17:27:47.838Z,25.15
2022-08-17T17:30:17.883Z,24.77
2022-08-17T17:32:50.967Z,24.83
2022-08-17T17:35:24.810Z,26.33
2022-08-17T17:37:54.018Z,24.45
2022-08-17T17:40:23.887Z,25.20
2022-08-17T17:42:53.535Z,25.58
2022-08-17T17:45:23.262Z,25.15
2022-08-17T17:47:53.171Z,24.50
2022-08-17T17:50:23.444Z,24.45
2022-08-17T17:53:03.297Z,24.42
2022-08-17T17:55:35.462Z,27.67
2022-08-17T17:58:10.836Z,28.10
2022-08-17T18:00:40.990Z,27.38
2022-08-17T18:03:15.148Z,29.85
2022-08-17T18:05:58.355Z,29.38
2022-08-17T18:08:40.255Z,32.10
2022-08-17T18:11:24.231Z,30.40
2022-08-17T18:14:00.248Z,31.25
2022-08-17T18:16:31.881Z,32.65
2022-08-17T18:19:01.821Z,34.30
2022-08-17T18:21:33.281Z,33.47
2022-08-17T18:24:02.875Z,33.25
2022-08-17T18:26:45.014Z,36.40
2022-08-17T18:29:16.395Z,35.60
2022-08-17T18:31:44.710Z,35.58
2022-08-17T18:34:45.876Z,38.33
2022-08-17T18:37:16.120Z,37.20
2022-08-17T18:39:47.951Z,38.47
2022-08-17T18:42:25.982Z,38.42
2022-08-17T18:44:55.490Z,39.80
2022-08-17T18:47:24.983Z,39.42
2022-08-17T18:49:57.813Z,38.50
2022-08-17T18:52:28.717Z,37.25
2022-08-17T18:55:05.692Z,38.55
2022-08-17T18:57:35.285Z,37.50
2022-08-17T19:00:12.039Z,36.40
2022-08-17T19:02:51.064Z,36.80
2022-08-17T19:05:32.708Z,35.50
2022-08-17T19:08:16.322Z,34.33
2022-08-17T19:10:47.363Z,33.22
2022-08-17T19:13:23.798Z,33.03
2022-08-17T19:16:12.091Z,31.80
2022-08-17T19:18:48.667Z,32.35
2022-08-17T19:21:19.974Z,29.33
2022-08-17T19:23:53.771Z,30.08
2022-08-17T19:26:51.249Z,28.23
2022-08-17T19:29:16.553Z,28.95
2022-08-17T19:31:48.014Z,28.27
2022-08-17T19:34:30.227Z,28.40
2022-08-17T19:37:06.869Z,26.92
2022-08-17T19:39:38.225Z,27.50
2022-08-17T19:42:14.321Z,24.88
2022-08-17T19:44:48.836Z,25.95
2022-08-17T19:47:43.065Z,26.30
2022-08-17T19:50:13.601Z,25.15
2022-08-17T19:52:54.250Z,24.48
2022-08-17T19:55:30.310Z,23.85
2022-08-17T19:58:03.477Z,24.98
2022-08-17T20:00:32.589Z,25.65
2022-08-17T20:03:06.192Z,25.95
2022-08-17T20:06:08.481Z,26.08
2022-08-17T20:08:28.638Z,27.45
2022-08-17T20:10:58.635Z,26.65
2022-08-17T20:13:33.290Z,26.52
2022-08-17T20:16:02.668Z,25.98
2022-08-17T20:18:33.646Z,25.67
2022-08-17T20:21:03.032Z,27.05
2022-08-17T20:23:37.322Z,25.80
2022-08-17T20:26:13.820Z,26.33
2022-08-17T20:29:06.647Z,28.88
2022-08-17T20:31:42.860Z,27.38
2022-08-17T20:34:31.050Z,27.80
2022-08-17T20:37:08.622Z,25.50
2022-08-17T20:39:40.030Z,25.38
2022-08-17T20:42:23.259Z,26.38
2022-08-17T20:44:52.490Z,27.55
2022-08-17T20:47:27.139Z,28.40
2022-08-17T20:49:57.354Z,27.23
2022-08-17T20:52:44.657Z,27.75
2022-08-17T20:55:28.319Z,28.40
2022-08-17T20:57:57.940Z,29.08
2022-08-17T21:00:42.301Z,28.08
2022-08-17T21:03:40.031Z,28.70
2022-08-17T21:06:18.559Z,29.52
2022-08-17T21:08:53.325Z,28.75
2022-08-17T21:11:59.952Z,29.88
2022-08-17T21:14:37.967Z,31.40
2022-08-17T21:17:31.683Z,32.08
2022-08-17T21:20:12.562Z,31.10
2022-08-17T21:22:48.789Z,30.90
2022-08-17T21:25:26.250Z,31.05
2022-08-17T21:28:01.380Z,31.77
2022-08-17T21:30:52.089Z,31.13
2022-08-17T21:33:31.522Z,32.20
2022-08-17T21:36:18.296Z,33.33
2022-08-17T21:38:57.814Z,32.38
2022-08-17T21:41:27.568Z,32.90
2022-08-17T21:44:01.670Z,31.35
2022-08-17T21:46:34.342Z,30.77
2022-08-17T21:49:13.464Z,31.10
2022-08-17T21:51:45.071Z,31.23
2022-08-17T21:54:20.861Z,34.15
2022-08-17T21:56:50.067Z,34.10
2022-08-17T21:59:25.663Z,34.13
2022-08-17T22:01:57.553Z,33.92
2022-08-17T22:04:30.083Z,35.83
2022-08-17T22:06:59.162Z,32.53
2022-08-17T22:09:29.088Z,34.33
2022-08-17T22:12:02.482Z,35.80
2022-08-17T22:14:52.063Z,36.78
2022-08-17T22:17:23.576Z,36.03
2022-08-17T22:19:53.009Z,35.95
2022-08-17T22:22:58.815Z,35.42
2022-08-17T22:25:27.010Z,36.30
2022-08-17T22:27:56.897Z,37.90
2022-08-17T22:30:30.301Z,37.42
2022-08-17T22:33:00.618Z,36.83
2022-08-17T22:35:39.092Z,36.72
2022-08-17T22:38:25.761Z,35.15
2022-08-17T22:40:55.098Z,36.28
2022-08-17T22:43:26.388Z,37.25
2022-08-17T22:45:56.365Z,37.95
2022-08-17T22:48:27.666Z,37.38
2022-08-17T22:51:04.884Z,35.58
2022-08-17T22:54:04.946Z,37.17
2022-08-17T22:56:50.668Z,37.00
2022-08-17T22:59:36.741Z,36.97
2022-08-17T23:02:12.665Z,35.45
2022-08-17T23:04:43.361Z,35.15
2022-08-17T23:07:11.958Z,34.88
2022-08-17T23:09:40.313Z,33.88
2022-08-17T23:12:11.590Z,35.22
2022-08-17T23:14:41.187Z,36.55
2022-08-17T23:17:10.184Z,36.72
2022-08-17T23:19:38.489Z,38.85
2022-08-17T23:22:09.175Z,37.60
2022-08-17T23:24:41.001Z,38.33
2022-08-17T23:27:09.230Z,37.15
2022-08-17T23:29:39.333Z,35.83
2022-08-17T23:32:09.794Z,35.83
2022-08-17T23:34:38.577Z,34.67
2022-08-17T23:37:08.422Z,40.10
2022-08-17T23:39:37.207Z,39.60
2022-08-17T23:42:07.789Z,41.38
2022-08-17T23:44:36.284Z,40.83
2022-08-17T23:47:04.867Z,40.28
2022-08-17T23:49:33.449Z,42.13
2022-08-17T23:52:03.085Z,41.92
2022-08-17T23:54:33.780Z,41.50
2022-08-17T23:57:02.044Z,41.83
2022-08-17T23:59:30.364Z,41.38
